Salisbury Ocean City Wicomico Regional Airport
KSBY : now visible

Airfield :











YOU CAN JOIN US ON...

 
LOGIN :

Register | Disclaimer

   EN    FR    IT 

 









Legend :    VFR   Marginal VFR   IFR   Intensive IFR   Very Intensive IFR
Visi :
Ceiling :
>= 8 km
>= 3000ft
5 to 8 km
1000 to 3000 ft
1500m to 5 km
500 to 1000 ft
800 to 1500m
200 to 500 ft
< 800m
< 200 ft
Symbols :   Thunderstorms  Fog  Heavy snow  Heavy precipitations  Wind > 20 kt






- Airport Elevation : 52 ft
- IATA code : SBY


KSBY - Salisbury Ocean City Wicomico Regional

CURRENT METAR :
  • 261554Z 29004KT 10SM SCT030 BKN038 28/21 A2992 RMK AO2 SLP132 T02780206

EXPIRED METARs :
  • 261454Z 00000KT 10SM CLR 25/20 A2991 RMK AO2 SLP130 60000 T02500200 56001
  • 261354Z 34005KT 10SM SCT120 23/20 A2991 RMK AO2 SLP130 T02280200
  • 261254Z 08003KT 9SM FEW100 19/19 A2989 RMK AO2 RAE23 SLP124 P0000 T01940189
  • 261154Z 06004KT 5SM -RA BR BKN080 OVC095 18/18 A2991 RMK AO2 RAB10E30B52 SLP130 P0000 60000 T01780178 10183 20172 53013

TAF KSBY
Valid from the 26 at 13:00 until the 27 at 12:00 UTC


261328Z 2613/2712 14004KT P6SM SCT040 SCT100
FM261800 15008KT P6SM SCT050 SCT250
FM270200 13005KT 3SM BR BKN015
FM270600 13005KT 4SM BR BKN008
KZDC FIR / North America



MET'MAP, your aeronautical weather chart ! - Copyright ORBIFLY December 2007 - Disclaimer

ORBIFLY MET'MAP TEAM :

Programming & Development : Alexandra Zaïnal
Original concept : Baudouin d'Aumeries
Technical & hardware support : Manuel Goepfert
Assistance : Marc-Olivier Méhu




SOURCES & CREDITS :

   NOAA       Earth
Advisory